createdAt,value
2023-03-11T00:00:52.136Z,985.26
2023-03-11T00:01:52.217Z,985.27
2023-03-11T00:02:52.094Z,985.34
2023-03-11T00:03:52.096Z,985.33
2023-03-11T00:04:52.162Z,985.35
2023-03-11T00:05:52.055Z,985.33
2023-03-11T00:06:52.062Z,985.36
2023-03-11T00:07:52.061Z,985.33
2023-03-11T00:08:52.040Z,985.30
2023-03-11T00:09:52.025Z,985.43
2023-03-11T00:10:52.119Z,985.27
2023-03-11T00:11:52.006Z,985.32
2023-03-11T00:12:52.048Z,985.44
2023-03-11T00:13:51.969Z,985.42
2023-03-11T00:14:51.970Z,985.44
2023-03-11T00:15:51.953Z,985.48
2023-03-11T00:16:52.032Z,985.44
2023-03-11T00:17:51.940Z,985.38
2023-03-11T00:18:51.918Z,985.43
2023-03-11T00:19:51.927Z,985.50
2023-03-11T00:20:51.899Z,985.50
2023-03-11T00:21:51.926Z,985.58
2023-03-11T00:22:51.875Z,985.56
2023-03-11T00:23:51.873Z,985.60
2023-03-11T00:24:51.862Z,985.58
2023-03-11T00:25:51.843Z,985.62
2023-03-11T00:26:51.824Z,985.64
2023-03-11T00:27:51.870Z,985.69
2023-03-11T00:28:51.828Z,985.75
2023-03-11T00:29:51.802Z,985.77
2023-03-11T00:30:51.896Z,985.72
2023-03-11T00:31:51.770Z,985.81
2023-03-11T00:32:51.807Z,985.81
2023-03-11T00:33:51.805Z,985.86
2023-03-11T00:34:51.739Z,985.81
2023-03-11T00:35:51.774Z,985.83
2023-03-11T00:36:51.723Z,985.85
2023-03-11T00:37:51.704Z,985.97
2023-03-11T00:38:51.852Z,985.87
2023-03-11T00:39:51.678Z,985.90
2023-03-11T00:40:51.702Z,985.87
2023-03-11T00:41:51.664Z,985.99
2023-03-11T00:42:51.667Z,985.90
2023-03-11T00:43:51.641Z,985.89
2023-03-11T00:44:51.665Z,985.95
2023-03-11T00:45:51.674Z,985.98
2023-03-11T00:46:51.599Z,986.04
2023-03-11T00:47:51.609Z,985.93
2023-03-11T00:48:51.600Z,985.93
2023-03-11T00:49:51.577Z,985.95
2023-03-11T00:50:51.616Z,985.94
2023-03-11T00:51:51.556Z,986.03
2023-03-11T00:52:51.548Z,985.95
2023-03-11T00:53:51.527Z,985.99
2023-03-11T00:54:51.519Z,985.93
2023-03-11T00:55:51.499Z,986.03
2023-03-11T00:56:51.532Z,985.96
2023-03-11T00:57:51.500Z,986.08
2023-03-11T00:58:51.469Z,986.05
2023-03-11T00:59:51.458Z,985.98
2023-03-11T01:00:51.450Z,986.08
2023-03-11T01:01:51.450Z,986.05
2023-03-11T01:02:51.527Z,986.09
2023-03-11T01:03:51.435Z,986.12
2023-03-11T01:04:51.436Z,986.13
2023-03-11T01:05:51.448Z,986.23
2023-03-11T01:06:51.400Z,986.25
2023-03-11T01:07:51.377Z,986.24
2023-03-11T01:08:51.372Z,986.20
2023-03-11T01:09:51.350Z,986.20
2023-03-11T01:10:51.358Z,986.22
2023-03-11T01:11:51.316Z,986.32
2023-03-11T01:12:51.501Z,986.29
2023-03-11T01:13:51.339Z,986.29
2023-03-11T01:14:51.329Z,986.26
2023-03-11T01:15:51.363Z,986.26
2023-03-11T01:16:51.284Z,986.27
2023-03-11T01:17:51.424Z,986.30
2023-03-11T01:18:51.289Z,986.38
2023-03-11T01:19:51.252Z,986.32
2023-03-11T01:20:51.233Z,986.28
2023-03-11T01:21:51.228Z,986.38
2023-03-11T01:22:51.234Z,986.35
2023-03-11T01:23:51.199Z,986.37
2023-03-11T01:24:52.160Z,986.34
2023-03-11T01:25:51.174Z,986.29
2023-03-11T01:26:51.144Z,986.32
2023-03-11T01:27:51.171Z,986.35
2023-03-11T01:28:51.130Z,986.32
2023-03-11T01:29:51.131Z,986.30
2023-03-11T01:30:51.151Z,986.27
2023-03-11T01:31:51.157Z,986.28
2023-03-11T01:32:51.173Z,986.18
2023-03-11T01:33:51.095Z,986.21
2023-03-11T01:34:51.064Z,986.26
2023-03-11T01:35:51.075Z,986.20
2023-03-11T01:36:51.081Z,986.17
2023-03-11T01:37:51.020Z,986.16
2023-03-11T01:38:51.010Z,986.07
2023-03-11T01:39:51.008Z,986.12
2023-03-11T01:40:50.987Z,986.06
2023-03-11T01:41:50.969Z,986.10
2023-03-11T01:42:51.011Z,986.00
2023-03-11T01:43:50.951Z,986.11
2023-03-11T01:44:50.949Z,986.13
2023-03-11T01:45:51.030Z,986.08
2023-03-11T01:46:50.990Z,986.11
2023-03-11T01:47:50.907Z,986.19
2023-03-11T01:48:50.939Z,986.25
2023-03-11T01:49:50.898Z,986.26
2023-03-11T01:50:50.884Z,986.31
2023-03-11T01:51:50.867Z,986.41
2023-03-11T01:52:50.986Z,986.39
2023-03-11T01:53:50.922Z,986.44
2023-03-11T01:54:51.995Z,986.38
2023-03-11T01:55:50.822Z,986.35
2023-03-11T01:56:50.819Z,986.34
2023-03-11T01:57:50.794Z,986.38
2023-03-11T01:58:50.806Z,986.25
2023-03-11T01:59:50.776Z,986.37
2023-03-11T02:00:50.808Z,986.36
2023-03-11T02:01:50.881Z,986.38
2023-03-11T02:02:50.786Z,986.36
2023-03-11T02:03:50.729Z,986.40
2023-03-11T02:04:50.729Z,986.39
2023-03-11T02:05:50.708Z,986.43
2023-03-11T02:06:53.658Z,986.43
2023-03-11T02:07:50.691Z,986.43
2023-03-11T02:08:50.704Z,986.49
2023-03-11T02:09:50.762Z,986.48
2023-03-11T02:10:50.651Z,986.51
2023-03-11T02:11:50.643Z,986.53
2023-03-11T02:12:50.686Z,986.53
2023-03-11T02:13:50.637Z,986.56
2023-03-11T02:14:50.630Z,986.53
2023-03-11T02:15:50.609Z,986.58
2023-03-11T02:16:50.623Z,986.54
2023-03-11T02:17:50.770Z,986.54
2023-03-11T02:18:50.576Z,986.52
2023-03-11T02:19:50.556Z,986.53
2023-03-11T02:20:50.550Z,986.51
2023-03-11T02:21:50.588Z,986.48
2023-03-11T02:22:50.532Z,986.48
2023-03-11T02:23:50.629Z,986.47
2023-03-11T02:24:50.512Z,986.51
2023-03-11T02:25:50.523Z,986.49
2023-03-11T02:26:50.488Z,986.54
2023-03-11T02:27:50.468Z,986.51
2023-03-11T02:28:50.472Z,986.54
2023-03-11T02:29:50.488Z,986.50
2023-03-11T02:30:50.475Z,986.55
2023-03-11T02:31:50.489Z,986.56
2023-03-11T02:32:50.546Z,986.52
2023-03-11T02:33:50.409Z,986.53
2023-03-11T02:34:50.390Z,986.50
2023-03-11T02:35:50.422Z,986.50
2023-03-11T02:36:50.380Z,986.61
2023-03-11T02:37:50.357Z,986.62
2023-03-11T02:38:50.352Z,986.68
2023-03-11T02:39:50.332Z,986.65
2023-03-11T02:40:50.323Z,986.64
2023-03-11T02:41:50.349Z,986.77
2023-03-11T02:42:50.305Z,986.75
2023-03-11T02:43:50.283Z,986.79
2023-03-11T02:44:50.280Z,986.76
2023-03-11T02:45:50.274Z,986.75
2023-03-11T02:46:50.302Z,986.73
2023-03-11T02:47:50.274Z,986.80
2023-03-11T02:48:50.231Z,986.92
2023-03-11T02:49:50.217Z,986.83
2023-03-11T02:50:50.213Z,986.94
2023-03-11T02:51:50.203Z,986.92
2023-03-11T02:52:50.211Z,986.93
2023-03-11T02:53:50.177Z,986.95
2023-03-11T02:54:50.159Z,986.98
2023-03-11T02:55:50.146Z,987.02
2023-03-11T02:56:50.215Z,986.97
2023-03-11T02:57:50.289Z,987.00
2023-03-11T02:58:50.145Z,986.98
2023-03-11T02:59:50.111Z,987.00
2023-03-11T03:00:50.136Z,986.97
2023-03-11T03:01:50.091Z,986.99
2023-03-11T03:02:50.069Z,987.03
2023-03-11T03:03:50.132Z,986.99
2023-03-11T03:04:50.074Z,987.03
2023-03-11T03:05:50.072Z,987.16
2023-03-11T03:06:50.029Z,987.04
2023-03-11T03:07:50.040Z,987.12
2023-03-11T03:08:50.007Z,987.19
2023-03-11T03:09:50.059Z,987.10
2023-03-11T03:10:50.017Z,987.16
2023-03-11T03:11:49.975Z,987.24
2023-03-11T03:12:49.979Z,987.18
2023-03-11T03:13:49.991Z,987.22
2023-03-11T03:14:49.946Z,987.26
2023-03-11T03:15:49.930Z,987.21
2023-03-11T03:16:50.120Z,987.25
2023-03-11T03:17:49.916Z,987.24
2023-03-11T03:18:49.889Z,987.36
2023-03-11T03:19:49.899Z,987.37
2023-03-11T03:20:49.882Z,987.43
2023-03-11T03:21:49.876Z,987.33
2023-03-11T03:22:49.920Z,987.38
2023-03-11T03:23:49.838Z,987.49
2023-03-11T03:24:49.814Z,987.44
2023-03-11T03:25:49.819Z,987.48
2023-03-11T03:26:49.811Z,987.48
2023-03-11T03:27:49.881Z,987.46
2023-03-11T03:28:50.534Z,987.49
2023-03-11T03:29:49.791Z,987.45
2023-03-11T03:30:49.768Z,987.45
2023-03-11T03:31:49.795Z,987.54
2023-03-11T03:32:49.862Z,987.58
2023-03-11T03:33:49.879Z,987.58
2023-03-11T03:34:49.723Z,987.60
2023-03-11T03:35:49.749Z,987.60
2023-03-11T03:36:49.683Z,987.54
2023-03-11T03:37:49.694Z,987.58
2023-03-11T03:38:49.698Z,987.64
2023-03-11T03:39:49.651Z,987.64
2023-03-11T03:40:49.640Z,987.54
2023-03-11T03:41:49.631Z,987.68
2023-03-11T03:42:49.618Z,987.63
2023-03-11T03:43:49.669Z,987.66
2023-03-11T03:44:49.808Z,987.66
2023-03-11T03:45:49.643Z,987.71
2023-03-11T03:46:49.602Z,987.74
2023-03-11T03:47:49.577Z,987.71
2023-03-11T03:48:49.565Z,987.79
2023-03-11T03:49:49.578Z,987.82
2023-03-11T03:50:49.570Z,987.82
2023-03-11T03:51:49.541Z,987.87
2023-03-11T03:52:49.562Z,987.81
2023-03-11T03:53:50.236Z,987.88
2023-03-11T03:54:49.561Z,987.84
2023-03-11T03:55:49.564Z,987.88
2023-03-11T03:56:49.546Z,987.88
2023-03-11T03:57:49.450Z,987.85
2023-03-11T03:58:49.468Z,987.89
2023-03-11T03:59:49.425Z,987.88
2023-03-11T04:00:49.464Z,987.83
2023-03-11T04:01:49.459Z,987.82
2023-03-11T04:02:49.488Z,987.82
2023-03-11T04:03:49.447Z,987.83
2023-03-11T04:04:49.375Z,987.86
2023-03-11T04:05:49.382Z,987.83
2023-03-11T04:06:49.384Z,987.82
2023-03-11T04:07:49.345Z,987.86
2023-03-11T04:08:49.323Z,987.87
2023-03-11T04:09:49.322Z,987.92
2023-03-11T04:10:49.306Z,987.94
2023-03-11T04:11:49.303Z,987.88
2023-03-11T04:12:49.329Z,987.92
2023-03-11T04:13:49.288Z,987.92
2023-03-11T04:14:49.262Z,987.95
2023-03-11T04:15:49.239Z,987.90
2023-03-11T04:16:49.288Z,987.98
2023-03-11T04:17:49.217Z,987.99
2023-03-11T04:18:49.262Z,987.98
2023-03-11T04:19:49.205Z,987.91
2023-03-11T04:20:49.194Z,987.93
2023-03-11T04:21:49.190Z,987.93
2023-03-11T04:22:49.207Z,987.96
2023-03-11T04:23:49.178Z,987.98
2023-03-11T04:24:49.181Z,987.97
2023-03-11T04:25:49.154Z,987.97
2023-03-11T04:26:49.159Z,988.04
2023-03-11T04:27:49.147Z,988.00
2023-03-11T04:28:49.138Z,987.99
2023-03-11T04:29:49.088Z,988.00
2023-03-11T04:30:49.150Z,988.07
2023-03-11T04:31:49.066Z,988.08
2023-03-11T04:32:49.137Z,988.05
2023-03-11T04:33:49.044Z,988.04
2023-03-11T04:34:49.042Z,988.03
2023-03-11T04:35:49.095Z,988.06
2023-03-11T04:36:49.063Z,987.99
2023-03-11T04:37:48.998Z,988.03
2023-03-11T04:38:48.975Z,988.07
2023-03-11T04:39:48.977Z,988.07
2023-03-11T04:40:48.977Z,988.18
2023-03-11T04:41:48.993Z,988.24
2023-03-11T04:42:48.942Z,988.23
2023-03-11T04:43:48.921Z,988.19
2023-03-11T04:44:49.005Z,988.20
2023-03-11T04:45:48.944Z,988.21
2023-03-11T04:46:48.925Z,988.26
2023-03-11T04:47:48.909Z,988.21
2023-03-11T04:48:48.878Z,988.23
2023-03-11T04:49:48.863Z,988.25
2023-03-11T04:50:48.843Z,988.23
2023-03-11T04:51:48.896Z,988.24
2023-03-11T04:52:48.841Z,988.26
2023-03-11T04:53:48.816Z,988.25
2023-03-11T04:54:48.820Z,988.26
2023-03-11T04:55:48.785Z,988.32
2023-03-11T04:56:48.788Z,988.31
2023-03-11T04:57:48.804Z,988.34
2023-03-11T04:58:48.779Z,988.42
2023-03-11T04:59:48.766Z,988.40
2023-03-11T05:00:48.756Z,988.44
2023-03-11T05:01:48.842Z,988.47
2023-03-11T05:02:48.716Z,988.51
2023-03-11T05:03:48.751Z,988.47
2023-03-11T05:04:48.722Z,988.53
2023-03-11T05:05:48.685Z,988.57
2023-03-11T05:06:48.665Z,988.54
2023-03-11T05:07:48.703Z,988.58
2023-03-11T05:08:48.653Z,988.53
2023-03-11T05:09:48.674Z,988.52
2023-03-11T05:10:48.623Z,988.54
2023-03-11T05:11:48.672Z,988.62
2023-03-11T05:12:48.637Z,988.55
2023-03-11T05:13:48.599Z,988.58
2023-03-11T05:14:48.586Z,988.57
2023-03-11T05:15:48.621Z,988.58
2023-03-11T05:16:48.554Z,988.55
2023-03-11T05:17:48.555Z,988.55
2023-03-11T05:18:48.536Z,988.56
2023-03-11T05:19:48.536Z,988.62
2023-03-11T05:20:48.566Z,988.66
2023-03-11T05:21:48.494Z,988.60
2023-03-11T05:22:48.495Z,988.66
2023-03-11T05:23:48.482Z,988.65
2023-03-11T05:24:48.464Z,988.66
2023-03-11T05:25:48.446Z,988.65
2023-03-11T05:26:48.646Z,988.70
2023-03-11T05:27:48.435Z,988.74
2023-03-11T05:28:48.469Z,988.77
2023-03-11T05:29:48.428Z,988.77
2023-03-11T05:30:48.432Z,988.76
2023-03-11T05:31:48.420Z,988.79
2023-03-11T05:32:48.418Z,988.82
2023-03-11T05:33:48.356Z,988.79
2023-03-11T05:34:48.370Z,988.79
2023-03-11T05:35:48.415Z,988.79
2023-03-11T05:36:48.384Z,988.85
2023-03-11T05:37:48.347Z,988.85
2023-03-11T05:38:48.308Z,988.80
2023-03-11T05:39:48.336Z,988.81
2023-03-11T05:40:48.303Z,988.82
2023-03-11T05:41:48.272Z,988.84
2023-03-11T05:42:48.280Z,988.83
2023-03-11T05:43:48.320Z,988.82
2023-03-11T05:44:48.292Z,988.90
2023-03-11T05:45:48.237Z,988.85
2023-03-11T05:46:48.306Z,988.92
2023-03-11T05:47:48.228Z,988.90
2023-03-11T05:48:48.232Z,988.89
2023-03-11T05:49:48.345Z,988.99
2023-03-11T05:50:48.179Z,988.97
2023-03-11T05:51:48.161Z,988.97
2023-03-11T05:52:48.159Z,989.01
2023-03-11T05:53:48.145Z,989.06
2023-03-11T05:54:48.122Z,989.02
2023-03-11T05:55:48.211Z,989.06
2023-03-11T05:56:48.119Z,989.10
2023-03-11T05:57:48.108Z,989.06
2023-03-11T05:58:48.092Z,989.06
2023-03-11T05:59:48.073Z,989.09
2023-03-11T06:00:48.196Z,989.14
2023-03-11T06:01:48.042Z,989.10
2023-03-11T06:02:48.044Z,989.06
2023-03-11T06:03:48.155Z,989.07
2023-03-11T06:04:48.193Z,989.10
2023-03-11T06:05:48.024Z,989.06
2023-03-11T06:06:48.009Z,989.08
2023-03-11T06:07:47.980Z,989.06
2023-03-11T06:08:47.984Z,989.10
2023-03-11T06:09:47.974Z,989.10
2023-03-11T06:10:49.062Z,989.13
2023-03-11T06:11:47.942Z,989.10
2023-03-11T06:12:47.952Z,989.15
2023-03-11T06:13:47.939Z,989.11
2023-03-11T06:14:47.901Z,989.13
2023-03-11T06:15:47.897Z,989.12
2023-03-11T06:16:47.869Z,989.16
2023-03-11T06:17:47.870Z,989.17
2023-03-11T06:18:47.881Z,989.18
2023-03-11T06:19:47.841Z,989.22
2023-03-11T06:20:47.829Z,989.24
2023-03-11T06:21:47.878Z,989.28
2023-03-11T06:22:47.802Z,989.27
2023-03-11T06:23:47.807Z,989.26
2023-03-11T06:24:47.830Z,989.30
2023-03-11T06:25:47.783Z,989.31
2023-03-11T06:26:47.760Z,989.32
2023-03-11T06:27:47.750Z,989.37
2023-03-11T06:28:47.757Z,989.39
2023-03-11T06:29:48.740Z,989.39
2023-03-11T06:30:47.773Z,989.42
2023-03-11T06:31:47.787Z,989.37
2023-03-11T06:32:47.739Z,989.40
2023-03-11T06:33:47.711Z,989.45
2023-03-11T06:34:47.687Z,989.38
2023-03-11T06:35:47.692Z,989.42
2023-03-11T06:36:47.690Z,989.48
2023-03-11T06:37:47.749Z,989.49
2023-03-11T06:38:47.628Z,989.45
2023-03-11T06:39:47.612Z,989.50
2023-03-11T06:40:47.616Z,989.46
2023-03-11T06:41:47.599Z,989.49
2023-03-11T06:42:47.593Z,989.49
2023-03-11T06:43:47.576Z,989.49
2023-03-11T06:44:47.581Z,989.52
2023-03-11T06:45:47.587Z,989.50
2023-03-11T06:46:47.535Z,989.53
2023-03-11T06:47:47.550Z,989.58
2023-03-11T06:48:47.506Z,989.56
2023-03-11T06:49:47.529Z,989.57
2023-03-11T06:50:48.506Z,989.58
2023-03-11T06:51:47.518Z,989.56
2023-03-11T06:52:47.471Z,989.58
2023-03-11T06:53:47.482Z,989.62
2023-03-11T06:54:47.451Z,989.67
2023-03-11T06:55:47.433Z,989.61
2023-03-11T06:56:47.419Z,989.65
2023-03-11T06:57:47.465Z,989.60
2023-03-11T06:58:47.442Z,989.61
2023-03-11T06:59:47.477Z,989.62
2023-03-11T07:00:47.417Z,989.66
2023-03-11T07:01:47.365Z,989.63
2023-03-11T07:02:47.374Z,989.60
2023-03-11T07:03:47.398Z,989.72
2023-03-11T07:04:47.343Z,989.69
2023-03-11T07:05:47.356Z,989.72
2023-03-11T07:06:47.323Z,989.73
2023-03-11T07:07:47.303Z,989.78
2023-03-11T07:08:47.299Z,989.75
2023-03-11T07:09:47.280Z,989.75
2023-03-11T07:10:47.316Z,989.78
2023-03-11T07:11:47.266Z,989.82
2023-03-11T07:12:47.246Z,989.81
2023-03-11T07:13:47.231Z,989.83
2023-03-11T07:14:47.226Z,989.88
2023-03-11T07:15:47.224Z,989.88
2023-03-11T07:16:47.272Z,989.91
2023-03-11T07:17:47.201Z,989.95
2023-03-11T07:18:47.187Z,989.89
2023-03-11T07:19:47.176Z,989.98
2023-03-11T07:20:47.172Z,989.97
2023-03-11T07:21:47.156Z,989.97
2023-03-11T07:22:47.237Z,990.00
2023-03-11T07:23:47.194Z,989.97
2023-03-11T07:24:47.108Z,990.06
2023-03-11T07:25:47.103Z,990.06
2023-03-11T07:26:47.099Z,990.14
2023-03-11T07:27:47.077Z,990.11
2023-03-11T07:28:47.118Z,990.13
2023-03-11T07:29:47.086Z,990.11
2023-03-11T07:30:47.047Z,990.16
2023-03-11T07:31:47.127Z,990.15
2023-03-11T07:32:47.068Z,990.21
2023-03-11T07:33:47.049Z,990.17
2023-03-11T07:34:47.013Z,990.20
2023-03-11T07:35:47.018Z,990.20
2023-03-11T07:36:46.994Z,990.20
2023-03-11T07:37:46.993Z,990.18
2023-03-11T07:38:46.996Z,990.28
2023-03-11T07:39:47.078Z,990.36
2023-03-11T07:40:46.959Z,990.33
2023-03-11T07:41:46.921Z,990.33
2023-03-11T07:42:46.928Z,990.33
2023-03-11T07:43:47.052Z,990.44
2023-03-11T07:44:46.898Z,990.39
2023-03-11T07:45:46.976Z,990.51
2023-03-11T07:46:46.881Z,990.43
2023-03-11T07:47:46.867Z,990.42
2023-03-11T07:48:46.854Z,990.48
2023-03-11T07:49:46.843Z,990.41
2023-03-11T07:50:46.820Z,990.46
2023-03-11T07:51:46.871Z,990.60
2023-03-11T07:52:46.813Z,990.51
2023-03-11T07:53:46.790Z,990.58
2023-03-11T07:54:46.804Z,990.61
2023-03-11T07:55:46.772Z,990.65
2023-03-11T07:56:46.748Z,990.66
2023-03-11T07:57:46.776Z,990.66
2023-03-11T07:58:46.726Z,990.61
2023-03-11T07:59:46.743Z,990.68
2023-03-11T08:00:46.707Z,990.78
2023-03-11T08:01:46.720Z,990.75
2023-03-11T08:02:46.721Z,990.79
2023-03-11T08:03:46.814Z,990.73
2023-03-11T08:04:46.680Z,990.75
2023-03-11T08:05:46.803Z,990.78
2023-03-11T08:06:46.649Z,990.77
2023-03-11T08:07:46.622Z,990.80
2023-03-11T08:08:46.631Z,990.79
2023-03-11T08:09:46.820Z,990.91
2023-03-11T08:10:46.629Z,990.79
2023-03-11T08:11:48.756Z,990.89
2023-03-11T08:12:46.570Z,990.97
2023-03-11T08:13:46.570Z,990.93
2023-03-11T08:14:46.691Z,990.97
2023-03-11T08:15:46.603Z,991.03
2023-03-11T08:16:46.551Z,991.10
2023-03-11T08:17:46.530Z,991.10
2023-03-11T08:18:46.516Z,991.18
2023-03-11T08:19:46.555Z,991.20
2023-03-11T08:20:46.498Z,991.21
2023-03-11T08:21:46.573Z,991.21
2023-03-11T08:22:57.569Z,991.17
2023-03-11T08:23:47.466Z,991.15
2023-03-11T08:24:46.466Z,991.15
2023-03-11T08:25:46.435Z,991.25
2023-03-11T08:26:46.423Z,991.26
2023-03-11T08:27:46.764Z,991.29
2023-03-11T08:28:46.410Z,991.30
2023-03-11T08:29:46.384Z,991.29
2023-03-11T08:30:46.460Z,991.32
2023-03-11T08:31:46.664Z,991.36
2023-03-11T08:32:46.387Z,991.37
2023-03-11T08:33:46.381Z,991.37
2023-03-11T08:34:46.435Z,991.43
2023-03-11T08:35:46.408Z,991.50
2023-03-11T08:36:46.341Z,991.48
2023-03-11T08:37:46.356Z,991.51
2023-03-11T08:38:46.440Z,991.54
2023-03-11T08:39:46.296Z,991.56
2023-03-11T08:40:46.312Z,991.59
2023-03-11T08:41:46.324Z,991.59
2023-03-11T08:42:46.252Z,991.62
2023-03-11T08:43:46.247Z,991.66
2023-03-11T08:44:46.325Z,991.56
2023-03-11T08:45:46.213Z,991.57
2023-03-11T08:46:46.344Z,991.57
2023-03-11T08:47:46.194Z,991.54
2023-03-11T08:48:46.213Z,991.53
2023-03-11T08:49:46.196Z,991.55
2023-03-11T08:50:53.911Z,991.61
2023-03-11T08:51:47.205Z,991.60
2023-03-11T08:52:46.160Z,991.61
2023-03-11T08:53:46.123Z,991.58
2023-03-11T08:54:46.124Z,991.58
2023-03-11T08:55:46.106Z,991.59
2023-03-11T08:56:46.177Z,991.56
2023-03-11T08:57:46.094Z,991.62
2023-03-11T08:58:46.091Z,991.62
2023-03-11T08:59:46.043Z,991.70
2023-03-11T09:00:46.044Z,991.73
2023-03-11T09:01:46.025Z,991.70
2023-03-11T09:02:46.156Z,991.66
2023-03-11T09:03:46.399Z,991.66
2023-03-11T09:04:45.997Z,991.70
2023-03-11T09:05:46.069Z,991.79
2023-03-11T09:06:45.965Z,991.68
2023-03-11T09:07:45.973Z,991.74
2023-03-11T09:08:45.979Z,991.72
2023-03-11T09:09:45.945Z,991.71
2023-03-11T09:10:45.924Z,991.74
2023-03-11T09:11:45.913Z,991.68
2023-03-11T09:12:45.897Z,991.62
2023-03-11T09:13:45.946Z,991.62
2023-03-11T09:14:45.898Z,991.72
2023-03-11T09:15:45.864Z,991.64
2023-03-11T09:16:45.882Z,991.66
2023-03-11T09:17:45.854Z,991.63
2023-03-11T09:18:45.842Z,991.64
2023-03-11T09:19:45.814Z,991.57
2023-03-11T09:20:45.836Z,991.55
2023-03-11T09:21:45.806Z,991.58
2023-03-11T09:22:45.786Z,991.59
2023-03-11T09:23:45.775Z,991.63
2023-03-11T09:24:45.773Z,991.58
2023-03-11T09:25:45.762Z,991.60
2023-03-11T09:26:45.798Z,991.63
2023-03-11T09:27:45.727Z,991.74
2023-03-11T09:28:45.717Z,991.69
2023-03-11T09:29:45.709Z,991.72
2023-03-11T09:30:45.723Z,991.68
2023-03-11T09:31:45.719Z,991.65
2023-03-11T09:32:45.762Z,991.66
2023-03-11T09:33:45.689Z,991.62
2023-03-11T09:34:45.653Z,991.65
2023-03-11T09:35:45.740Z,991.68
2023-03-11T09:36:45.634Z,991.72
2023-03-11T09:37:45.766Z,991.69
2023-03-11T09:38:45.642Z,991.75
2023-03-11T09:39:45.640Z,991.79
2023-03-11T09:40:47.016Z,991.66
2023-03-11T09:41:57.579Z,991.80
2023-03-11T09:42:46.575Z,991.72
2023-03-11T09:43:45.632Z,991.79
2023-03-11T09:44:46.489Z,991.77
2023-03-11T09:45:45.542Z,991.79
2023-03-11T09:46:46.518Z,991.80
2023-03-11T09:47:45.551Z,991.82
2023-03-11T09:48:45.545Z,991.84
2023-03-11T09:49:45.670Z,991.87
2023-03-11T09:50:45.583Z,991.88
2023-03-11T09:51:45.597Z,991.90
2023-03-11T09:52:45.468Z,991.94
2023-03-11T09:53:45.599Z,991.97
2023-03-11T09:54:45.617Z,991.96
2023-03-11T09:55:45.552Z,992.05
2023-03-11T09:56:45.445Z,991.98
2023-03-11T09:57:45.556Z,991.99
2023-03-11T09:58:45.398Z,991.98
2023-03-11T09:59:45.375Z,991.98
2023-03-11T10:00:45.421Z,992.02
2023-03-11T10:01:45.478Z,991.98
2023-03-11T10:02:45.460Z,991.97
2023-03-11T10:03:45.340Z,991.95
2023-03-11T10:04:45.587Z,992.03
2023-03-11T10:05:45.312Z,992.01
2023-03-11T10:06:45.334Z,992.02
2023-03-11T10:07:45.340Z,992.00
2023-03-11T10:08:45.271Z,991.99
2023-03-11T10:09:45.267Z,991.95
2023-03-11T10:10:45.252Z,991.90
2023-03-11T10:11:45.304Z,991.94
2023-03-11T10:12:45.227Z,991.99
2023-03-11T10:13:45.253Z,991.97
2023-03-11T10:14:45.206Z,991.97
2023-03-11T10:15:45.213Z,992.02
2023-03-11T10:16:45.273Z,992.01
2023-03-11T10:17:45.171Z,992.04
2023-03-11T10:18:45.211Z,992.04
2023-03-11T10:19:45.210Z,992.05
2023-03-11T10:20:45.134Z,992.02
2023-03-11T10:21:45.154Z,992.07
2023-03-11T10:22:45.167Z,992.08
2023-03-11T10:23:45.093Z,992.10
2023-03-11T10:24:45.160Z,992.07
2023-03-11T10:25:45.077Z,992.07
2023-03-11T10:26:45.087Z,992.03
2023-03-11T10:27:45.043Z,992.07
2023-03-11T10:28:45.096Z,992.07
2023-03-11T10:29:45.065Z,992.05
2023-03-11T10:30:45.069Z,992.12
2023-03-11T10:31:45.031Z,992.11
2023-03-11T10:32:45.027Z,992.08
2023-03-11T10:33:47.261Z,992.10
2023-03-11T10:34:44.994Z,992.12
2023-03-11T10:35:45.023Z,992.11
2023-03-11T10:36:44.973Z,992.08
2023-03-11T10:37:49.642Z,992.06
2023-03-11T10:38:45.929Z,992.06
2023-03-11T10:39:44.934Z,992.02
2023-03-11T10:40:44.910Z,992.04
2023-03-11T10:41:44.886Z,992.08
2023-03-11T10:42:44.926Z,992.03
2023-03-11T10:43:44.871Z,992.02
2023-03-11T10:44:44.868Z,991.96
2023-03-11T10:45:44.929Z,991.98
2023-03-11T10:46:44.850Z,991.96
2023-03-11T10:47:44.823Z,991.94
2023-03-11T10:48:44.867Z,991.97
2023-03-11T10:49:44.813Z,992.02
2023-03-11T10:50:44.807Z,991.94
2023-03-11T10:51:44.790Z,991.96
2023-03-11T10:52:44.785Z,992.02
2023-03-11T10:53:44.794Z,992.05
2023-03-11T10:54:44.737Z,992.02
2023-03-11T10:55:44.742Z,992.02
2023-03-11T10:56:44.740Z,992.06
2023-03-11T10:57:44.713Z,992.01
2023-03-11T10:58:44.751Z,992.10
2023-03-11T10:59:44.730Z,992.08
2023-03-11T11:00:44.685Z,992.12
2023-03-11T11:01:44.667Z,992.11
2023-03-11T11:02:44.652Z,992.14
2023-03-11T11:03:44.714Z,992.12
2023-03-11T11:04:44.629Z,992.10
2023-03-11T11:05:44.660Z,992.18
2023-03-11T11:06:44.610Z,992.22
2023-03-11T11:07:44.705Z,992.20
2023-03-11T11:08:44.582Z,992.24
2023-03-11T11:09:44.581Z,992.21
2023-03-11T11:10:44.571Z,992.15
2023-03-11T11:11:44.674Z,992.15
2023-03-11T11:12:44.571Z,992.22
2023-03-11T11:13:44.559Z,992.18
2023-03-11T11:14:44.564Z,992.15
2023-03-11T11:15:44.524Z,992.18
2023-03-11T11:16:44.597Z,992.17
2023-03-11T11:17:44.527Z,992.15
2023-03-11T11:18:44.485Z,992.11
2023-03-11T11:19:44.480Z,992.17
2023-03-11T11:20:44.470Z,992.15
2023-03-11T11:21:44.434Z,992.20
2023-03-11T11:22:44.480Z,992.14
2023-03-11T11:23:44.423Z,992.12
2023-03-11T11:24:44.421Z,992.10
2023-03-11T11:25:44.461Z,992.13
2023-03-11T11:26:44.398Z,992.15
2023-03-11T11:27:44.375Z,992.09
2023-03-11T11:28:44.384Z,992.09
2023-03-11T11:29:44.370Z,992.11
2023-03-11T11:30:44.471Z,992.10
2023-03-11T11:31:44.345Z,992.17
2023-03-11T11:32:44.339Z,992.14
2023-03-11T11:33:44.310Z,992.12
2023-03-11T11:34:44.365Z,992.18
2023-03-11T11:35:44.305Z,992.18
2023-03-11T11:36:44.304Z,992.14
2023-03-11T11:37:44.275Z,992.20
2023-03-11T11:38:44.267Z,992.21
2023-03-11T11:39:44.249Z,992.21
2023-03-11T11:40:44.255Z,992.14
2023-03-11T11:41:44.215Z,992.15
2023-03-11T11:42:44.220Z,992.15
2023-03-11T11:43:44.200Z,992.12
2023-03-11T11:44:44.188Z,992.14
2023-03-11T11:45:44.213Z,992.23
2023-03-11T11:46:44.176Z,992.15
2023-03-11T11:47:44.155Z,992.12
2023-03-11T11:48:44.165Z,992.18
2023-03-11T11:49:44.122Z,992.17
2023-03-11T11:50:44.106Z,992.14
2023-03-11T11:51:44.129Z,992.18
2023-03-11T11:52:45.180Z,992.23
2023-03-11T11:53:44.087Z,992.18
2023-03-11T11:54:44.111Z,992.20
2023-03-11T11:55:44.054Z,992.20
2023-03-11T11:56:44.044Z,992.16
2023-03-11T11:57:44.086Z,992.19
2023-03-11T11:58:44.044Z,992.21
2023-03-11T11:59:44.032Z,992.20
2023-03-11T12:00:43.995Z,992.14
2023-03-11T12:01:43.988Z,992.15
2023-03-11T12:02:43.975Z,992.12
2023-03-11T12:03:44.095Z,992.11
2023-03-11T12:04:43.965Z,992.11
2023-03-11T12:05:43.989Z,992.15
2023-03-11T12:06:43.961Z,992.11
2023-03-11T12:07:43.928Z,992.11
2023-03-11T12:08:43.930Z,992.11
2023-03-11T12:09:43.927Z,992.14
2023-03-11T12:10:43.902Z,992.13
2023-03-11T12:11:43.877Z,992.14
2023-03-11T12:12:43.871Z,992.11
2023-03-11T12:13:43.873Z,992.11
2023-03-11T12:14:43.909Z,992.11
2023-03-11T12:15:43.867Z,992.12
2023-03-11T12:16:43.835Z,992.11
2023-03-11T12:17:43.806Z,992.12
2023-03-11T12:18:43.799Z,992.09
2023-03-11T12:19:43.809Z,992.12
2023-03-11T12:20:43.811Z,992.09
2023-03-11T12:21:43.856Z,992.11
2023-03-11T12:22:43.768Z,992.07
2023-03-11T12:23:43.745Z,992.08
2023-03-11T12:24:43.724Z,992.10
2023-03-11T12:25:43.711Z,992.07
2023-03-11T12:26:43.729Z,992.11
2023-03-11T12:27:43.742Z,992.08
2023-03-11T12:28:43.711Z,992.15